Atwood, Alabama
Current Conditions -  °F | °C
As of 4:38 PM on Wednesday 22 Oct 2014 (Local Time) from K1M4 Reporting Station
Haze Haze  
Wind Chill: 64°   Ceiling: Unl
Heat Index: 64°   Visibility: 1.7mi
Dew Point: 41°   Wind: 6mph
Humidity: 42%   Direction: NA
Pressure: 30.16"   Gusts: NA
Location:  34.3479°N, 87.9692°W
Report Text: K1M4 222138Z AUTO VRB05KT 1 3/4SM HZ CLR 18/05 A3016 RMK AO2
Loading
Personal Weather Stations






























Interactive Weather Map
Tropical Storm Tracking
New forecast layout! Learn more

10-Day Weather Forecast

Advertisements
Track Severe Weather on mobile